Pagina principale
METAR-TAF:

METAR-TAF

Aeroporti :

Fiume, Croazia

latitudine: 45-13N, longitudine: 014-35E, altezza: 85 m

Osservazione

Il bollettino è stato emesso 24 minuti fa, alle 11:30 UTC
Vento 11 kt da nord-est, variando fra nord/nord-est e est
Temperature 6°C
Umidità 45%
Pressione 1016 hPa
Visibilità 10 km o più
Poco nuvoloso ad un'altezza di 4300 ft

METAR: LDRI 211130Z 05011KT 020V090 9999 FEW043 06/M05 Q1016

Ora: 12:54 (11:54 UTC)

Previsione

Il bollettino è stato emesso 29 minuti fa, alle 11:25 UTC
Previsione valida dal 21 alle 12 UTC al 22 alle 12 UTC
Vento 12 kt da nord-est
Visibilità 10 km o più
Nubi sparse ad un'altezza di 5000 ft

TAF: LDRI 211125Z 2112/2212 05012KT 9999 SCT050 TX06/2112Z TN04/2201Z

Osservazioni e previsioni meteorologiche di più di 4000 aeroporti (messaggi METAR e TAF).

Le stazioni disponibili sono rappresentate dai dischi gialli e rossi sulla carta.

Puntare il mouse per vedere il nome della stazione.

Clicca sopra per visualizzare le osservazioni e previsioni meteorologiche.

Per cambiare la mappa : fare clic sui pulsanti verdi con una croce nera per ingrandire, il pulsante verde con un trattino per diminuire, o sulla freccia verde per le mappe adiacenti.


METAR-TAF: